createdAt,value
2022-08-10T00:01:35.609Z,51.40
2022-08-10T00:04:02.481Z,51.50
2022-08-10T00:06:29.528Z,51.50
2022-08-10T00:08:56.294Z,51.50
2022-08-10T00:11:23.350Z,51.60
2022-08-10T00:13:50.274Z,51.70
2022-08-10T00:16:17.134Z,51.70
2022-08-10T00:18:44.522Z,51.70
2022-08-10T00:21:11.574Z,51.80
2022-08-10T00:23:38.719Z,51.80
2022-08-10T00:26:06.531Z,51.90
2022-08-10T00:28:33.477Z,51.90
2022-08-10T00:31:00.263Z,52.00
2022-08-10T00:33:27.109Z,52.00
2022-08-10T00:35:53.870Z,52.00
2022-08-10T00:38:20.710Z,52.10
2022-08-10T00:40:47.547Z,52.20
2022-08-10T00:43:14.431Z,52.20
2022-08-10T00:45:41.156Z,52.10
2022-08-10T00:48:09.414Z,52.20
2022-08-10T00:50:36.184Z,52.30
2022-08-10T00:53:02.906Z,52.40
2022-08-10T00:55:31.374Z,52.40
2022-08-10T00:57:58.446Z,52.50
2022-08-10T01:00:25.451Z,52.50
2022-08-10T01:02:53.141Z,52.60
2022-08-10T01:05:20.923Z,52.70
2022-08-10T01:08:32.454Z,52.70
2022-08-10T01:11:02.986Z,52.80
2022-08-10T01:13:38.257Z,52.80
2022-08-10T01:16:25.159Z,52.80
2022-08-10T01:19:12.495Z,53.00
2022-08-10T01:22:23.875Z,53.10
2022-08-10T01:24:58.709Z,53.10
2022-08-10T01:27:36.559Z,53.00
2022-08-10T01:30:20.775Z,53.10
2022-08-10T01:33:05.019Z,53.10
2022-08-10T01:35:38.701Z,53.30
2022-08-10T01:38:24.681Z,53.30
2022-08-10T01:41:05.195Z,53.40
2022-08-10T01:43:34.876Z,53.40
2022-08-10T01:46:04.486Z,53.40
2022-08-10T01:48:47.159Z,53.40
2022-08-10T01:51:49.465Z,53.60
2022-08-10T01:54:20.508Z,53.60
2022-08-10T01:56:51.050Z,53.70
2022-08-10T01:59:31.336Z,53.70
2022-08-10T02:02:02.429Z,53.70
2022-08-10T02:04:31.232Z,53.80
2022-08-10T02:06:58.841Z,53.80
2022-08-10T02:09:28.816Z,53.90
2022-08-10T02:12:07.030Z,54.00
2022-08-10T02:14:52.508Z,54.10
2022-08-10T02:17:59.839Z,54.00
2022-08-10T02:20:24.001Z,54.10
2022-08-10T02:22:56.560Z,54.20
2022-08-10T02:25:41.574Z,54.20
2022-08-10T02:28:29.748Z,54.30
2022-08-10T02:31:01.631Z,54.40
2022-08-10T02:33:30.963Z,54.40
2022-08-10T02:36:01.684Z,54.50
2022-08-10T02:38:59.698Z,54.50
2022-08-10T02:45:02.316Z,54.60
2022-08-10T02:45:24.120Z,54.60
2022-08-10T02:47:55.351Z,54.70
2022-08-10T02:50:38.854Z,54.70
2022-08-10T02:53:56.259Z,54.70
2022-08-10T02:55:58.296Z,54.80
2022-08-10T02:59:01.052Z,54.90
2022-08-10T03:01:33.895Z,55.10
2022-08-10T03:04:06.554Z,55.10
2022-08-10T03:06:37.707Z,55.10
2022-08-10T03:09:07.704Z,55.20
2022-08-10T03:12:37.211Z,55.30
2022-08-10T03:14:23.864Z,55.30
2022-08-10T03:16:52.902Z,55.40
2022-08-10T03:20:34.807Z,55.40
2022-08-10T03:22:09.232Z,55.50
2022-08-10T03:24:37.973Z,55.50
2022-08-10T03:27:05.600Z,55.60
2022-08-10T03:30:29.800Z,55.60
2022-08-10T03:32:20.602Z,55.60
2022-08-10T03:34:48.035Z,55.60
2022-08-10T03:37:14.891Z,55.70
2022-08-10T03:39:41.643Z,55.80
2022-08-10T03:42:12.965Z,55.80
2022-08-10T03:44:41.910Z,55.90
2022-08-10T03:47:15.130Z,55.90
2022-08-10T03:49:46.643Z,55.90
2022-08-10T03:52:14.881Z,55.90
2022-08-10T03:54:42.875Z,56.00
2022-08-10T03:57:10.173Z,56.00
2022-08-10T03:59:38.242Z,56.10
2022-08-10T04:02:45.761Z,56.10
2022-08-10T04:04:54.953Z,56.20
2022-08-10T04:07:21.729Z,56.10
2022-08-10T04:09:56.128Z,56.20
2022-08-10T04:12:26.103Z,56.20
2022-08-10T04:14:53.749Z,56.30
2022-08-10T04:18:02.940Z,56.30
2022-08-10T04:20:38.305Z,56.50
2022-08-10T04:23:08.953Z,56.60
2022-08-10T04:25:37.883Z,56.70
2022-08-10T04:28:05.236Z,56.80
2022-08-10T04:30:34.941Z,56.90
2022-08-10T04:33:04.002Z,57.10
2022-08-10T04:35:32.721Z,57.00
2022-08-10T04:38:02.022Z,57.10
2022-08-10T04:40:30.945Z,57.10
2022-08-10T04:43:12.466Z,57.20
2022-08-10T04:45:48.749Z,57.10
2022-08-10T04:48:41.229Z,57.10
2022-08-10T04:51:07.789Z,57.10
2022-08-10T04:54:05.857Z,57.20
2022-08-10T04:56:31.249Z,57.20
2022-08-10T04:58:59.675Z,57.20
2022-08-10T05:01:26.451Z,57.20
2022-08-10T05:04:35.095Z,57.20
2022-08-10T05:06:39.982Z,57.30
2022-08-10T05:09:06.668Z,57.40
2022-08-10T05:11:33.546Z,57.40
2022-08-10T05:14:00.429Z,57.50
2022-08-10T05:16:31.811Z,57.60
2022-08-10T05:18:59.487Z,57.60
2022-08-10T05:21:56.351Z,57.70
2022-08-10T05:24:12.948Z,57.70
2022-08-10T05:27:00.650Z,57.60
2022-08-10T05:29:26.569Z,57.80
2022-08-10T05:31:54.072Z,57.70
2022-08-10T05:34:26.533Z,57.70
2022-08-10T05:36:57.364Z,57.70
2022-08-10T05:39:25.264Z,57.80
2022-08-10T05:42:00.901Z,57.90
2022-08-10T05:44:29.273Z,58.00
2022-08-10T05:46:56.176Z,58.10
2022-08-10T05:49:23.021Z,58.20
2022-08-10T05:51:49.823Z,58.20
2022-08-10T05:54:17.159Z,58.20
2022-08-10T05:56:56.380Z,58.20
2022-08-10T06:00:33.501Z,58.20
2022-08-10T06:02:31.749Z,58.20
2022-08-10T06:05:09.088Z,58.20
2022-08-10T06:07:40.964Z,58.00
2022-08-10T06:10:11.503Z,58.00
2022-08-10T06:12:55.646Z,57.90
2022-08-10T06:15:50.309Z,57.80
2022-08-10T06:18:14.280Z,57.60
2022-08-10T06:20:41.943Z,57.40
2022-08-10T06:23:09.515Z,57.30
2022-08-10T06:26:10.762Z,57.20
2022-08-10T06:28:24.724Z,57.10
2022-08-10T06:30:53.702Z,57.10
2022-08-10T06:33:23.256Z,56.70
2022-08-10T06:35:53.713Z,56.60
2022-08-10T06:38:24.001Z,56.50
2022-08-10T06:40:56.939Z,56.30
2022-08-10T06:43:25.813Z,56.20
2022-08-10T06:46:06.897Z,56.10
2022-08-10T06:48:39.063Z,56.00
2022-08-10T06:51:13.559Z,55.80
2022-08-10T06:53:53.120Z,55.70
2022-08-10T06:56:35.909Z,55.50
2022-08-10T06:59:21.203Z,55.30
2022-08-10T07:01:58.338Z,55.20
2022-08-10T07:04:33.012Z,55.00
2022-08-10T07:07:06.563Z,54.80
2022-08-10T07:09:37.567Z,54.50
2022-08-10T07:12:07.816Z,54.50
2022-08-10T07:14:41.195Z,54.30
2022-08-10T07:17:15.860Z,54.20
2022-08-10T07:19:49.880Z,54.10
2022-08-10T07:23:50.775Z,54.10
2022-08-10T07:25:10.760Z,54.00
2022-08-10T07:27:58.833Z,53.80
2022-08-10T07:30:28.616Z,53.60
2022-08-10T07:32:56.747Z,53.50
2022-08-10T07:35:26.167Z,53.30
2022-08-10T07:37:54.012Z,53.10
2022-08-10T07:40:23.450Z,53.10
2022-08-10T07:42:54.231Z,52.80
2022-08-10T07:45:21.352Z,52.70
2022-08-10T07:48:07.806Z,52.60
2022-08-10T07:50:38.905Z,52.40
2022-08-10T07:53:10.091Z,52.40
2022-08-10T07:56:07.450Z,52.30
2022-08-10T07:58:31.863Z,52.10
2022-08-10T08:01:00.326Z,52.00
2022-08-10T08:03:29.570Z,51.80
2022-08-10T08:06:03.181Z,51.60
2022-08-10T08:08:40.525Z,51.40
2022-08-10T08:11:08.692Z,51.30
2022-08-10T08:13:37.751Z,51.20
2022-08-10T08:16:19.281Z,51.00
2022-08-10T08:19:09.918Z,50.90
2022-08-10T08:24:10.168Z,50.80
2022-08-10T08:24:32.749Z,50.60
2022-08-10T08:27:02.744Z,50.60
2022-08-10T08:29:33.689Z,50.60
2022-08-10T08:32:03.341Z,50.20
2022-08-10T08:34:36.312Z,50.10
2022-08-10T08:37:04.416Z,50.00
2022-08-10T08:39:36.914Z,49.70
2022-08-10T08:42:32.365Z,49.70
2022-08-10T08:45:11.046Z,49.60
2022-08-10T08:48:06.547Z,49.50
2022-08-10T08:50:36.109Z,49.50
2022-08-10T08:54:01.694Z,49.50
2022-08-10T08:56:28.290Z,49.30
2022-08-10T08:59:17.861Z,49.30
2022-08-10T09:01:58.764Z,49.30
2022-08-10T09:04:55.721Z,49.00
2022-08-10T09:08:01.043Z,48.90
2022-08-10T09:10:32.934Z,48.80
2022-08-10T09:13:29.389Z,48.80
2022-08-10T09:16:25.458Z,48.70
2022-08-10T09:19:10.671Z,48.70
2022-08-10T09:22:17.407Z,48.60
2022-08-10T09:24:45.701Z,48.40
2022-08-10T09:27:26.503Z,48.30
2022-08-10T09:30:06.214Z,48.00
2022-08-10T09:36:16.126Z,47.90
2022-08-10T09:36:19.533Z,47.90
2022-08-10T09:40:12.316Z,47.90
2022-08-10T09:43:02.218Z,47.90
2022-08-10T09:46:19.371Z,48.00
2022-08-10T09:48:58.653Z,47.50
2022-08-10T09:51:47.684Z,47.50
2022-08-10T09:54:26.906Z,47.40
2022-08-10T09:57:55.058Z,47.30
2022-08-10T10:00:32.866Z,47.20
2022-08-10T10:03:08.220Z,47.30
2022-08-10T10:06:00.635Z,47.20
2022-08-10T10:08:58.166Z,46.70
2022-08-10T10:11:43.889Z,46.30
2022-08-10T10:14:36.040Z,45.70
2022-08-10T10:17:19.962Z,45.80
2022-08-10T10:20:28.117Z,45.50
2022-08-10T10:23:06.888Z,45.20
2022-08-10T10:25:57.781Z,45.20
2022-08-10T10:31:53.030Z,44.90
2022-08-10T10:34:46.488Z,44.70
2022-08-10T10:37:14.716Z,44.40
2022-08-10T10:39:46.991Z,44.10
2022-08-10T10:42:44.787Z,43.60
2022-08-10T10:45:24.315Z,43.20
2022-08-10T10:48:08.968Z,43.10
2022-08-10T10:50:51.185Z,43.30
2022-08-10T10:53:39.695Z,43.20
2022-08-10T10:56:24.990Z,43.10
2022-08-10T10:59:55.364Z,42.80
2022-08-10T11:02:45.313Z,41.90
2022-08-10T11:05:49.244Z,40.80
2022-08-10T11:08:28.956Z,40.20
2022-08-10T11:11:06.653Z,40.40
2022-08-10T11:14:24.599Z,40.60
2022-08-10T11:17:13.665Z,40.90
2022-08-10T11:20:01.626Z,41.00
2022-08-10T11:22:51.180Z,40.70
2022-08-10T11:25:38.689Z,40.10
2022-08-10T11:28:14.278Z,39.70
2022-08-10T11:31:02.745Z,39.70
2022-08-10T11:34:03.973Z,39.80
2022-08-10T11:36:52.271Z,39.70
2022-08-10T11:39:49.528Z,39.20
2022-08-10T11:42:42.220Z,39.00
2022-08-10T11:45:29.498Z,38.90
2022-08-10T11:48:12.956Z,38.80
2022-08-10T11:51:05.992Z,38.60
2022-08-10T11:53:39.291Z,38.50
2022-08-10T11:56:11.127Z,37.70
2022-08-10T11:59:00.294Z,37.10
2022-08-10T12:01:31.850Z,36.60
2022-08-10T12:04:07.419Z,36.20
2022-08-10T12:06:55.078Z,35.80
2022-08-10T12:10:09.094Z,35.50
2022-08-10T12:12:13.642Z,35.20
2022-08-10T12:15:03.941Z,35.00
2022-08-10T12:18:24.071Z,34.60
2022-08-10T12:20:57.480Z,34.50
2022-08-10T12:23:39.975Z,34.70
2022-08-10T12:26:13.952Z,34.60
2022-08-10T12:28:50.151Z,34.60
2022-08-10T12:31:27.449Z,34.60
2022-08-10T12:34:05.404Z,34.80
2022-08-10T12:36:44.862Z,35.20
2022-08-10T12:39:25.040Z,35.60
2022-08-10T12:42:06.541Z,35.70
2022-08-10T12:44:48.734Z,35.80
2022-08-10T12:48:16.339Z,36.00
2022-08-10T12:50:52.461Z,36.30
2022-08-10T12:53:33.581Z,36.60
2022-08-10T12:56:02.260Z,36.60
2022-08-10T12:58:58.713Z,36.70
2022-08-10T13:01:18.889Z,36.60
2022-08-10T13:04:20.484Z,36.50
2022-08-10T13:06:41.591Z,36.20
2022-08-10T13:09:09.303Z,36.40
2022-08-10T13:12:35.929Z,36.60
2022-08-10T13:14:49.901Z,36.50
2022-08-10T13:17:39.385Z,36.70
2022-08-10T13:20:16.239Z,36.80
2022-08-10T13:22:44.223Z,36.90
2022-08-10T13:25:12.558Z,37.10
2022-08-10T13:27:59.780Z,37.40
2022-08-10T13:30:37.936Z,37.70
2022-08-10T13:33:06.698Z,37.80
2022-08-10T13:35:35.308Z,37.80
2022-08-10T13:38:03.229Z,37.70
2022-08-10T13:40:32.019Z,37.90
2022-08-10T13:43:02.586Z,37.60
2022-08-10T13:45:30.440Z,37.70
2022-08-10T13:48:19.461Z,37.50
2022-08-10T13:50:49.050Z,37.30
2022-08-10T13:53:17.852Z,37.30
2022-08-10T13:55:56.398Z,37.10
2022-08-10T13:58:32.984Z,37.00
2022-08-10T14:01:02.916Z,37.10
2022-08-10T14:03:37.452Z,37.10
2022-08-10T14:06:06.802Z,36.90
2022-08-10T14:08:35.391Z,37.60
2022-08-10T14:11:11.234Z,37.00
2022-08-10T14:13:45.397Z,37.10
2022-08-10T14:16:13.353Z,37.10
2022-08-10T14:18:44.695Z,37.20
2022-08-10T14:21:13.241Z,37.20
2022-08-10T14:23:42.588Z,37.30
2022-08-10T14:26:23.982Z,37.20
2022-08-10T14:28:56.111Z,37.00
2022-08-10T14:31:28.917Z,37.00
2022-08-10T14:33:59.314Z,36.90
2022-08-10T14:37:03.574Z,36.80
2022-08-10T14:39:48.561Z,36.80
2022-08-10T14:42:27.249Z,36.50
2022-08-10T14:44:58.323Z,36.60
2022-08-10T14:47:53.023Z,36.60
2022-08-10T14:50:31.741Z,36.50
2022-08-10T14:53:05.286Z,36.50
2022-08-10T14:55:58.364Z,36.50
2022-08-10T14:58:36.060Z,36.40
2022-08-10T15:01:07.687Z,36.40
2022-08-10T15:04:02.033Z,36.30
2022-08-10T15:06:31.013Z,36.30
2022-08-10T15:09:25.880Z,36.30
2022-08-10T15:12:15.400Z,36.10
2022-08-10T15:14:48.171Z,36.20
2022-08-10T15:17:29.735Z,36.20
2022-08-10T15:20:20.690Z,36.10
2022-08-10T15:22:59.637Z,36.00
2022-08-10T15:25:28.482Z,36.10
2022-08-10T15:28:05.324Z,36.20
2022-08-10T15:30:48.209Z,36.10
2022-08-10T15:33:59.479Z,36.00
2022-08-10T15:36:43.683Z,36.00
2022-08-10T15:40:21.859Z,36.10
2022-08-10T15:42:17.372Z,36.00
2022-08-10T15:44:47.621Z,36.20
2022-08-10T15:47:21.425Z,36.20
2022-08-10T15:49:53.232Z,36.40
2022-08-10T15:52:39.709Z,36.50
2022-08-10T15:55:43.258Z,36.40
2022-08-10T15:58:38.700Z,36.40
2022-08-10T16:02:13.289Z,36.50
2022-08-10T16:04:18.704Z,36.40
2022-08-10T16:07:08.928Z,36.30
2022-08-10T16:10:23.751Z,36.20
2022-08-10T16:12:34.324Z,36.30
2022-08-10T16:15:10.996Z,36.40
2022-08-10T16:17:54.509Z,36.40
2022-08-10T16:20:47.919Z,36.70
2022-08-10T16:23:26.106Z,36.70
2022-08-10T16:26:02.987Z,37.30
2022-08-10T16:28:38.663Z,36.70
2022-08-10T16:31:12.185Z,36.80
2022-08-10T16:33:53.534Z,36.90
2022-08-10T16:36:22.390Z,36.80
2022-08-10T16:38:50.884Z,36.90
2022-08-10T16:42:03.869Z,37.00
2022-08-10T16:44:11.657Z,37.00
2022-08-10T16:46:43.628Z,37.10
2022-08-10T16:49:12.663Z,37.20
2022-08-10T16:51:41.127Z,37.40
2022-08-10T16:54:10.520Z,37.40
2022-08-10T16:56:49.261Z,37.40
2022-08-10T16:59:24.497Z,37.40
2022-08-10T17:01:54.075Z,37.60
2022-08-10T17:04:23.537Z,37.50
2022-08-10T17:06:59.511Z,37.50
2022-08-10T17:09:38.599Z,37.70
2022-08-10T17:12:10.744Z,37.80
2022-08-10T17:14:39.999Z,38.40
2022-08-10T17:17:13.828Z,37.90
2022-08-10T17:19:45.150Z,38.00
2022-08-10T17:22:16.115Z,38.10
2022-08-10T17:24:51.069Z,38.20
2022-08-10T17:28:05.678Z,38.20
2022-08-10T17:30:14.001Z,38.50
2022-08-10T17:32:50.579Z,38.60
2022-08-10T17:35:23.962Z,38.70
2022-08-10T17:38:14.203Z,38.80
2022-08-10T17:40:57.765Z,38.70
2022-08-10T17:43:58.598Z,38.80
2022-08-10T17:46:15.568Z,38.90
2022-08-10T17:48:44.276Z,39.00
2022-08-10T17:51:15.871Z,39.00
2022-08-10T17:53:47.520Z,39.00
2022-08-10T17:56:17.034Z,39.00
2022-08-10T17:58:55.918Z,39.10
2022-08-10T18:01:40.340Z,39.40
2022-08-10T18:04:19.223Z,39.70
2022-08-10T18:06:54.597Z,40.00
2022-08-10T18:09:34.069Z,40.20
2022-08-10T18:12:18.356Z,40.30
2022-08-10T18:14:49.444Z,40.20
2022-08-10T18:17:24.065Z,40.30
2022-08-10T18:19:56.601Z,40.60
2022-08-10T18:22:24.852Z,40.70
2022-08-10T18:24:52.830Z,40.80
2022-08-10T18:27:21.207Z,40.90
2022-08-10T18:29:53.630Z,41.30
2022-08-10T18:32:25.345Z,41.30
2022-08-10T18:35:01.210Z,41.30
2022-08-10T18:37:29.678Z,41.40
2022-08-10T18:40:01.728Z,41.60
2022-08-10T18:42:46.636Z,41.60
2022-08-10T18:45:21.843Z,41.70
2022-08-10T18:48:13.573Z,41.70
2022-08-10T18:50:52.919Z,41.80
2022-08-10T18:53:31.307Z,41.90
2022-08-10T18:56:15.890Z,42.10
2022-08-10T18:58:51.580Z,42.20
2022-08-10T19:01:30.153Z,42.50
2022-08-10T19:04:13.750Z,42.50
2022-08-10T19:06:52.991Z,42.80
2022-08-10T19:09:46.152Z,42.80
2022-08-10T19:12:35.688Z,42.90
2022-08-10T19:15:28.070Z,43.10
2022-08-10T19:18:17.137Z,43.20
2022-08-10T19:21:23.309Z,43.30
2022-08-10T19:24:14.421Z,43.50
2022-08-10T19:26:51.513Z,43.50
2022-08-10T19:30:11.839Z,43.40
2022-08-10T19:32:45.028Z,43.50
2022-08-10T19:36:04.459Z,43.60
2022-08-10T19:38:43.936Z,43.70
2022-08-10T19:41:32.679Z,43.70
2022-08-10T19:44:35.591Z,43.80
2022-08-10T19:47:36.434Z,43.80
2022-08-10T19:50:13.127Z,44.00
2022-08-10T19:52:52.722Z,44.00
2022-08-10T19:55:54.135Z,44.10
2022-08-10T19:58:28.073Z,44.10
2022-08-10T20:01:06.170Z,44.20
2022-08-10T20:03:41.449Z,44.30
2022-08-10T20:06:20.205Z,44.50
2022-08-10T20:09:06.766Z,44.50
2022-08-10T20:11:45.268Z,44.70
2022-08-10T20:14:21.163Z,44.70
2022-08-10T20:16:50.977Z,44.80
2022-08-10T20:19:52.637Z,44.90
2022-08-10T20:22:28.660Z,44.90
2022-08-10T20:25:16.562Z,44.90
2022-08-10T20:28:00.104Z,45.00
2022-08-10T20:30:36.105Z,45.00
2022-08-10T20:33:11.476Z,45.10
2022-08-10T20:36:19.798Z,45.30
2022-08-10T20:38:57.084Z,45.40
2022-08-10T20:42:05.419Z,45.40
2022-08-10T20:44:50.743Z,45.50
2022-08-10T20:47:54.250Z,45.60
2022-08-10T20:50:42.960Z,45.70
2022-08-10T20:53:14.361Z,45.70
2022-08-10T20:56:14.886Z,45.80
2022-08-10T20:59:33.694Z,46.00
2022-08-10T21:02:26.668Z,46.00
2022-08-10T21:05:08.757Z,46.80
2022-08-10T21:08:01.055Z,46.60
2022-08-10T21:10:34.800Z,46.60
2022-08-10T21:13:21.827Z,46.50
2022-08-10T21:16:20.327Z,46.60
2022-08-10T21:19:01.973Z,46.60
2022-08-10T21:21:57.047Z,46.60
2022-08-10T21:24:41.767Z,46.80
2022-08-10T21:27:27.126Z,46.80
2022-08-10T21:30:10.636Z,47.00
2022-08-10T21:32:59.351Z,47.10
2022-08-10T21:35:37.517Z,47.20
2022-08-10T21:38:21.314Z,47.20
2022-08-10T21:41:17.603Z,47.30
2022-08-10T21:44:13.647Z,47.50
2022-08-10T21:47:01.748Z,47.50
2022-08-10T21:50:17.770Z,47.70
2022-08-10T21:53:44.947Z,47.90
2022-08-10T21:56:46.474Z,47.90
2022-08-10T21:59:44.392Z,48.00
2022-08-10T22:02:37.195Z,48.10
2022-08-10T22:05:23.385Z,48.20
2022-08-10T22:08:26.997Z,48.30
2022-08-10T22:11:16.368Z,48.40
2022-08-10T22:14:05.236Z,48.60
2022-08-10T22:20:27.801Z,48.90
2022-08-10T22:23:32.180Z,48.80
2022-08-10T22:27:00.454Z,49.00
2022-08-10T22:29:57.475Z,49.10
2022-08-10T22:31:25.965Z,48.80
2022-08-10T22:33:27.522Z,49.10
2022-08-10T22:36:31.139Z,49.30
2022-08-10T22:40:05.651Z,49.40
2022-08-10T22:42:58.099Z,50.00
2022-08-10T22:45:57.479Z,49.40
2022-08-10T22:48:42.712Z,49.50
2022-08-10T22:51:20.278Z,49.60
2022-08-10T22:54:30.640Z,49.70
2022-08-10T22:57:21.480Z,49.70
2022-08-10T22:59:49.590Z,49.70
2022-08-10T23:02:37.896Z,49.80
2022-08-10T23:05:14.065Z,49.90
2022-08-10T23:07:51.323Z,50.00
2022-08-10T23:10:23.347Z,50.10
2022-08-10T23:13:07.586Z,50.10
2022-08-10T23:15:56.813Z,50.10
2022-08-10T23:18:56.120Z,50.20
2022-08-10T23:21:47.772Z,50.30
2022-08-10T23:24:22.635Z,50.30
2022-08-10T23:26:53.035Z,50.30
2022-08-10T23:29:23.422Z,50.40
2022-08-10T23:32:07.126Z,50.50
2022-08-10T23:34:36.077Z,50.60
2022-08-10T23:37:06.574Z,50.60
2022-08-10T23:39:37.130Z,50.70
2022-08-10T23:42:08.440Z,50.80
2022-08-10T23:44:42.036Z,50.90
2022-08-10T23:47:11.641Z,51.00
2022-08-10T23:49:40.031Z,51.00
2022-08-10T23:52:19.894Z,51.10
2022-08-10T23:54:53.108Z,51.20
2022-08-10T23:57:22.804Z,51.30
2022-08-10T23:59:59.759Z,51.40
